Time;durP1;ratioP1;P1;durP2;ratioP2;P2;SDS_P1;SDS_P2;PMS_P1;PMS_P2;Temp;Humidity;BMP_temperature;BMP_pressure;BME280_temperature;BME280_humidity;BME280_pressure;Samples;Min_cycle;Max_cycle;Signal;HPM_P1;HPM_P2
2021/03/07 00:01:55;;;;;;;3.80;3.30;;;;;;;;;;5049362;28;20021;-65
2021/03/07 00:04:21;;;;;;;4.25;3.85;;;;;;;;;;5050113;28;20085;-65
2021/03/07 00:06:47;;;;;;;3.45;3.13;;;;;;;;;;5049708;28;20088;-65
2021/03/07 00:09:13;;;;;;;3.45;2.92;;;;;;;;;;5050464;28;20049;-65
2021/03/07 00:11:39;;;;;;;4.88;4.38;;;;;;;;;;5049527;28;20090;-65
2021/03/07 00:14:05;;;;;;;4.40;3.92;;;;;;;;;;5050182;28;20133;-65
2021/03/07 00:16:31;;;;;;;4.45;3.55;;;;;;;;;;5050706;28;20025;-65
2021/03/07 00:18:57;;;;;;;4.43;4.03;;;;;;;;;;5050033;28;20115;-65
2021/03/07 00:21:23;;;;;;;6.25;4.90;;;;;;;;;;5049835;28;20025;-65
2021/03/07 00:23:49;;;;;;;4.60;3.85;;;;;;;;;;5049460;28;20036;-65
2021/03/07 00:26:15;;;;;;;4.43;3.75;;;;;;;;;;5050422;28;20040;-65
2021/03/07 00:28:41;;;;;;;5.15;4.18;;;;;;;;;;5049561;28;20442;-65
2021/03/07 00:31:07;;;;;;;5.10;3.85;;;;;;;;;;5049511;28;20541;-65
2021/03/07 00:33:33;;;;;;;4.90;3.30;;;;;;;;;;5049367;28;20407;-65
2021/03/07 00:36:00;;;;;;;5.57;4.40;;;;;;;;;;5048643;28;20032;-65
2021/03/07 00:38:26;;;;;;;4.30;3.90;;;;;;;;;;5050018;28;20025;-65
2021/03/07 00:40:52;;;;;;;4.22;3.38;;;;;;;;;;5048781;28;20056;-65
2021/03/07 00:43:19;;;;;;;3.75;3.05;;;;;;;;;;5049548;28;20057;-65
2021/03/07 00:45:45;;;;;;;4.50;3.97;;;;;;;;;;5049582;28;20037;-65
2021/03/07 00:48:11;;;;;;;4.32;3.90;;;;;;;;;;5049817;28;20023;-65
2021/03/07 00:50:37;;;;;;;4.60;3.70;;;;;;;;;;5049061;28;20029;-65
2021/03/07 00:53:03;;;;;;;4.45;4.05;;;;;;;;;;5049123;28;20510;-65
2021/03/07 00:55:29;;;;;;;4.80;4.22;;;;;;;;;;5049973;28;20448;-65
2021/03/07 00:57:55;;;;;;;4.60;4.13;;;;;;;;;;5049177;28;20032;-65
2021/03/07 01:00:23;;;;;;;6.00;4.18;;;;;;;;;;5048743;28;20045;-65
2021/03/07 01:02:49;;;;;;;4.82;3.88;;;;;;;;;;5048840;28;20495;-65
2021/03/07 01:05:15;;;;;;;3.95;3.60;;;;;;;;;;5048229;28;20115;-65
2021/03/07 01:07:42;;;;;;;8.85;5.85;;;;;;;;;;5048958;28;20095;-65
2021/03/07 01:10:12;;;;;;;5.13;3.95;;;;;;;;;;5049099;28;20017;-65
2021/03/07 01:12:39;;;;;;;3.50;3.20;;;;;;;;;;5048591;28;20253;-65
2021/03/07 01:15:06;;;;;;;6.65;4.03;;;;;;;;;;5048811;28;20021;-65
2021/03/07 01:17:32;;;;;;;6.68;5.88;;;;;;;;;;5049376;28;20036;-65
2021/03/07 01:19:58;;;;;;;4.38;3.45;;;;;;;;;;5048297;28;20574;-65
2021/03/07 01:22:24;;;;;;;4.68;4.10;;;;;;;;;;5048408;28;20451;-65
2021/03/07 01:24:50;;;;;;;6.60;4.55;;;;;;;;;;5048492;28;20132;-65
2021/03/07 01:27:16;;;;;;;4.97;3.88;;;;;;;;;;5049679;28;20029;-65
2021/03/07 01:29:42;;;;;;;4.28;3.88;;;;;;;;;;5047886;28;20164;-65
2021/03/07 01:32:08;;;;;;;5.07;4.10;;;;;;;;;;5048953;28;20037;-65
2021/03/07 01:34:34;;;;;;;4.80;4.30;;;;;;;;;;5047535;28;20634;-65
2021/03/07 01:37:00;;;;;;;5.28;4.13;;;;;;;;;;5048666;28;20052;-65
2021/03/07 01:39:26;;;;;;;7.78;4.45;;;;;;;;;;5048692;28;20029;-65
2021/03/07 01:41:52;;;;;;;5.72;4.97;;;;;;;;;;5047746;28;20067;-65
2021/03/07 01:44:19;;;;;;;6.03;4.45;;;;;;;;;;5048820;28;20017;-65
2021/03/07 01:46:45;;;;;;;4.53;4.22;;;;;;;;;;5048287;28;20037;-65
2021/03/07 01:49:11;;;;;;;4.13;3.67;;;;;;;;;;5048971;28;20029;-65
2021/03/07 01:51:37;;;;;;;5.20;3.78;;;;;;;;;;5047558;28;20025;-65
2021/03/07 01:54:04;;;;;;;5.88;4.88;;;;;;;;;;5048301;28;20086;-65
2021/03/07 01:56:30;;;;;;;5.70;3.67;;;;;;;;;;5049454;28;20522;-65
2021/03/07 01:58:57;;;;;;;4.15;3.05;;;;;;;;;;5047785;28;20033;-65
2021/03/07 02:01:24;;;;;;;7.43;4.20;;;;;;;;;;5048195;28;20031;-65
2021/03/07 02:03:50;;;;;;;3.75;3.28;;;;;;;;;;5047578;28;20037;-65
2021/03/07 02:06:16;;;;;;;6.13;4.22;;;;;;;;;;5046918;28;20017;-65
2021/03/07 02:08:43;;;;;;;6.60;4.25;;;;;;;;;;5047694;28;20017;-65
2021/03/07 02:11:09;;;;;;;4.63;3.83;;;;;;;;;;5048184;28;20395;-65
2021/03/07 02:13:39;;;;;;;3.90;3.60;;;;;;;;;;5047883;28;20587;-65
2021/03/07 02:16:25;;;;;;;5.78;3.97;;;;;;;;;;5048115;28;20041;-65
2021/03/07 02:18:52;;;;;;;7.95;4.82;;;;;;;;;;5047567;28;20566;-65
2021/03/07 02:21:30;;;;;;;5.68;4.20;;;;;;;;;;5047791;28;20083;-65
2021/03/07 02:24:07;;;;;;;4.00;2.90;;;;;;;;;;5047563;28;20048;-65
2021/03/07 02:26:34;;;;;;;3.30;3.00;;;;;;;;;;5048208;28;20037;-65
2021/03/07 02:29:01;;;;;;;3.83;3.42;;;;;;;;;;5047457;28;20052;-65
2021/03/07 02:31:28;;;;;;;4.95;3.30;;;;;;;;;;5048000;28;20036;-65
2021/03/07 02:33:58;;;;;;;3.97;2.45;;;;;;;;;;5046941;28;20390;-65
2021/03/07 02:36:30;;;;;;;3.60;3.30;;;;;;;;;;5047060;28;20036;-65
2021/03/07 02:38:57;;;;;;;3.30;2.75;;;;;;;;;;5046644;28;20220;-65
2021/03/07 02:41:24;;;;;;;4.88;3.92;;;;;;;;;;5047734;28;20021;-65
2021/03/07 02:43:52;;;;;;;3.42;2.50;;;;;;;;;;5047068;28;20387;-65
2021/03/07 02:46:19;;;;;;;4.22;3.83;;;;;;;;;;5048249;28;20233;-65
2021/03/07 02:48:47;;;;;;;5.45;3.28;;;;;;;;;;5046764;28;20029;-65
2021/03/07 02:51:13;;;;;;;2.95;2.75;;;;;;;;;;5047446;28;20029;-65
2021/03/07 02:53:40;;;;;;;3.85;3.25;;;;;;;;;;5047127;28;20033;-65
2021/03/07 02:56:09;;;;;;;4.03;3.55;;;;;;;;;;5047713;28;20706;-65
2021/03/07 02:58:37;;;;;;;3.42;3.08;;;;;;;;;;5047790;28;20033;-65
2021/03/07 03:01:04;;;;;;;3.80;2.85;;;;;;;;;;5047116;28;20021;-65
2021/03/07 03:03:33;;;;;;;5.68;3.42;;;;;;;;;;5047236;28;20028;-65
2021/03/07 03:05:59;;;;;;;2.33;2.13;;;;;;;;;;5046506;28;20459;-65
2021/03/07 03:08:25;;;;;;;3.00;2.58;;;;;;;;;;5047144;28;20678;-65
2021/03/07 03:10:52;;;;;;;3.17;2.88;;;;;;;;;;5046161;28;20492;-65
2021/03/07 03:13:19;;;;;;;3.38;2.22;;;;;;;;;;5047857;28;20025;-65
2021/03/07 03:15:46;;;;;;;4.47;2.85;;;;;;;;;;5046930;28;20067;-65
2021/03/07 03:18:14;;;;;;;2.85;2.10;;;;;;;;;;5047552;28;20111;-65
2021/03/07 03:20:40;;;;;;;3.03;2.40;;;;;;;;;;5050711;28;20104;-65
2021/03/07 03:23:06;;;;;;;4.22;2.90;;;;;;;;;;5050554;28;20075;-65
2021/03/07 03:25:32;;;;;;;2.50;2.30;;;;;;;;;;5051777;28;20503;-65
2021/03/07 03:27:59;;;;;;;2.80;2.58;;;;;;;;;;5050437;28;20044;-65
2021/03/07 03:30:25;;;;;;;3.33;2.72;;;;;;;;;;5051145;28;20586;-65
2021/03/07 03:32:51;;;;;;;3.55;2.80;;;;;;;;;;5050622;28;20072;-65
2021/03/07 03:35:18;;;;;;;3.80;2.88;;;;;;;;;;5050614;28;20025;-65
2021/03/07 03:37:46;;;;;;;3.30;2.10;;;;;;;;;;5049988;28;20029;-65
2021/03/07 03:40:25;;;;;;;3.60;2.60;;;;;;;;;;5050491;28;20025;-65
2021/03/07 03:42:54;;;;;;;4.18;2.47;;;;;;;;;;5050103;28;20471;-65
2021/03/07 03:45:20;;;;;;;2.75;2.17;;;;;;;;;;5051088;28;20549;-65
2021/03/07 03:47:47;;;;;;;5.82;2.90;;;;;;;;;;5050755;28;20025;-65
2021/03/07 03:50:13;;;;;;;2.42;2.22;;;;;;;;;;5050872;28;20116;-65
2021/03/07 03:52:40;;;;;;;4.85;2.60;;;;;;;;;;5050118;28;20175;-65
2021/03/07 03:55:11;;;;;;;3.58;2.50;;;;;;;;;;5050899;28;20052;-65
2021/03/07 03:57:37;;;;;;;2.55;2.20;;;;;;;;;;5051292;28;20032;-65
2021/03/07 04:00:06;;;;;;;3.75;2.70;;;;;;;;;;5049721;28;20036;-65
2021/03/07 04:02:33;;;;;;;5.15;2.42;;;;;;;;;;5050692;28;20029;-65
2021/03/07 04:05:00;;;;;;;2.78;2.53;;;;;;;;;;5049244;28;20025;-65
2021/03/07 04:07:26;;;;;;;3.55;2.40;;;;;;;;;;5050540;28;20511;-65
2021/03/07 04:09:54;;;;;;;4.45;2.17;;;;;;;;;;5049209;28;20111;-65
2021/03/07 04:12:20;;;;;;;2.22;1.77;;;;;;;;;;5050087;28;20025;-65
2021/03/07 04:14:47;;;;;;;2.33;2.13;;;;;;;;;;5050340;28;20033;-65
2021/03/07 04:17:19;;;;;;;3.70;2.58;;;;;;;;;;5050513;28;20043;-65
2021/03/07 04:19:45;;;;;;;3.25;2.05;;;;;;;;;;5049573;28;20527;-65
2021/03/07 04:22:12;;;;;;;3.70;2.40;;;;;;;;;;5049581;28;20510;-65
2021/03/07 04:24:39;;;;;;;2.55;2.30;;;;;;;;;;5050170;28;20017;-65
2021/03/07 04:27:05;;;;;;;3.25;2.55;;;;;;;;;;5050829;28;20021;-65
2021/03/07 04:29:32;;;;;;;2.95;2.72;;;;;;;;;;5049037;28;20033;-65
2021/03/07 04:31:58;;;;;;;3.33;2.38;;;;;;;;;;5049703;28;20033;-65
2021/03/07 04:34:24;;;;;;;2.20;1.83;;;;;;;;;;5049205;28;20032;-65
2021/03/07 04:36:51;;;;;;;2.40;2.20;;;;;;;;;;5049402;28;20035;-65
2021/03/07 04:39:18;;;;;;;4.22;1.65;;;;;;;;;;5049320;28;20395;-65
2021/03/07 04:41:44;;;;;;;4.22;2.38;;;;;;;;;;5049131;28;20044;-65
2021/03/07 04:44:10;;;;;;;3.50;2.28;;;;;;;;;;5049667;28;20075;-65
2021/03/07 04:46:36;;;;;;;3.60;2.05;;;;;;;;;;5050015;28;20033;-65
2021/03/07 04:49:02;;;;;;;2.10;1.80;;;;;;;;;;5049209;28;20017;-65
2021/03/07 04:51:28;;;;;;;2.58;1.85;;;;;;;;;;5049549;28;20136;-65
2021/03/07 04:53:54;;;;;;;3.17;2.35;;;;;;;;;;5049070;28;20026;-65
2021/03/07 04:56:20;;;;;;;3.85;2.53;;;;;;;;;;5050210;28;20064;-65
2021/03/07 04:58:46;;;;;;;5.75;3.05;;;;;;;;;;5049361;28;20035;-65
2021/03/07 05:01:12;;;;;;;2.47;1.83;;;;;;;;;;5049150;28;20024;-65
2021/03/07 05:03:38;;;;;;;4.72;2.30;;;;;;;;;;5048851;28;20055;-65
2021/03/07 05:06:05;;;;;;;4.55;1.55;;;;;;;;;;5049121;28;20029;-65
2021/03/07 05:08:31;;;;;;;2.33;1.85;;;;;;;;;;5049942;28;20088;-65
2021/03/07 05:10:57;;;;;;;2.90;2.10;;;;;;;;;;5048404;28;20040;-65
2021/03/07 05:13:23;;;;;;;2.88;1.58;;;;;;;;;;5049586;28;20032;-65
2021/03/07 05:15:50;;;;;;;4.80;2.00;;;;;;;;;;5049764;28;20032;-65
2021/03/07 05:18:16;;;;;;;3.13;2.13;;;;;;;;;;5049490;28;20033;-65
2021/03/07 05:20:42;;;;;;;2.95;2.33;;;;;;;;;;5048425;28;20071;-65
2021/03/07 05:23:08;;;;;;;2.25;1.88;;;;;;;;;;5048637;28;20108;-65
2021/03/07 05:25:34;;;;;;;2.90;2.17;;;;;;;;;;5049305;28;20028;-65
2021/03/07 05:28:00;;;;;;;3.45;2.20;;;;;;;;;;5048824;28;20037;-65
2021/03/07 05:30:26;;;;;;;2.75;2.35;;;;;;;;;;5049036;28;20033;-65
2021/03/07 05:32:53;;;;;;;3.90;3.17;;;;;;;;;;5048671;28;20032;-65
2021/03/07 05:35:19;;;;;;;3.90;1.75;;;;;;;;;;5048555;28;20166;-65
2021/03/07 05:37:45;;;;;;;3.38;1.50;;;;;;;;;;5048499;28;20033;-65
2021/03/07 05:40:11;;;;;;;2.72;2.03;;;;;;;;;;5048240;28;20031;-65
2021/03/07 05:42:38;;;;;;;2.67;1.70;;;;;;;;;;5047526;28;20057;-65
2021/03/07 05:45:04;;;;;;;3.03;2.10;;;;;;;;;;5048929;28;20064;-65
2021/03/07 05:47:30;;;;;;;3.80;1.85;;;;;;;;;;5049179;28;20060;-65
2021/03/07 05:49:56;;;;;;;5.75;3.00;;;;;;;;;;5047438;28;20029;-65
2021/03/07 05:52:23;;;;;;;2.97;2.03;;;;;;;;;;5048635;28;20383;-65
2021/03/07 05:54:51;;;;;;;3.38;2.35;;;;;;;;;;5048089;28;20073;-65
2021/03/07 05:57:19;;;;;;;1.98;1.80;;;;;;;;;;5049907;28;20033;-65
2021/03/07 05:59:45;;;;;;;4.80;1.75;;;;;;;;;;5047016;28;20025;-65
2021/03/07 06:02:13;;;;;;;2.70;1.50;;;;;;;;;;5048704;28;20115;-65
2021/03/07 06:04:40;;;;;;;3.05;2.83;;;;;;;;;;5046891;28;20455;-65
2021/03/07 06:07:06;;;;;;;2.70;1.63;;;;;;;;;;5048783;28;20124;-65
2021/03/07 06:09:32;;;;;;;3.78;1.33;;;;;;;;;;5048219;28;20373;-65
2021/03/07 06:12:01;;;;;;;1.80;1.65;;;;;;;;;;5047213;28;20077;-65
2021/03/07 06:14:28;;;;;;;3.60;1.95;;;;;;;;;;5049018;28;20350;-65
2021/03/07 06:17:14;;;;;;;1.77;1.45;;;;;;;;;;5048056;28;20025;-65
2021/03/07 06:20:15;;;;;;;3.28;2.78;;;;;;;;;;5047531;28;20430;-65
2021/03/07 06:22:52;;;;;;;3.53;2.00;;;;;;;;;;4965797;28;20027;-65
2021/03/07 06:25:18;;;;;;;4.63;2.35;;;;;;;;;;5038212;28;20068;-65
2021/03/07 06:27:44;;;;;;;2.22;2.03;;;;;;;;;;5047484;28;20527;-65
2021/03/07 06:30:11;;;;;;;3.28;1.58;;;;;;;;;;5047598;28;20480;-65
2021/03/07 06:32:39;;;;;;;4.63;2.20;;;;;;;;;;5047385;28;20033;-65
2021/03/07 06:35:12;;;;;;;2.47;1.60;;;;;;;;;;5046875;28;20035;-65
2021/03/07 06:38:11;;;;;;;2.38;2.00;;;;;;;;;;5047919;28;20044;-65
2021/03/07 06:40:40;;;;;;;3.47;1.92;;;;;;;;;;5003202;28;20036;-65
2021/03/07 06:43:18;;;;;;;2.35;1.80;;;;;;;;;;5047379;28;20496;-65
2021/03/07 06:45:45;;;;;;;5.32;2.50;;;;;;;;;;5047305;28;20380;-65
2021/03/07 06:48:12;;;;;;;6.13;2.45;;;;;;;;;;5048228;28;20110;-65
2021/03/07 06:50:54;;;;;;;3.10;1.73;;;;;;;;;;5047101;28;20499;-65
2021/03/07 06:53:40;;;;;;;2.35;2.10;;;;;;;;;;5029650;28;20511;-65
2021/03/07 06:56:06;;;;;;;5.25;2.47;;;;;;;;;;5047875;28;20029;-65
2021/03/07 06:58:33;;;;;;;4.38;2.55;;;;;;;;;;5048091;28;20044;-65
2021/03/07 07:00:59;;;;;;;4.28;2.47;;;;;;;;;;5046559;28;20395;-65
2021/03/07 07:03:26;;;;;;;7.45;2.50;;;;;;;;;;5047909;28;20522;-65
2021/03/07 07:05:53;;;;;;;4.03;2.60;;;;;;;;;;5045883;28;20032;-65
2021/03/07 07:08:39;;;;;;;2.72;1.83;;;;;;;;;;5048098;28;20415;-65
2021/03/07 07:11:06;;;;;;;4.20;2.70;;;;;;;;;;5046831;28;20040;-65
2021/03/07 07:13:42;;;;;;;5.88;1.85;;;;;;;;;;5047351;28;20031;-65
2021/03/07 07:16:08;;;;;;;3.50;1.98;;;;;;;;;;5047707;28;20032;-65
2021/03/07 07:18:36;;;;;;;3.20;1.70;;;;;;;;;;5047639;28;20021;-65
2021/03/07 07:21:03;;;;;;;4.60;2.85;;;;;;;;;;5046521;28;20025;-65
2021/03/07 07:23:29;;;;;;;4.45;2.60;;;;;;;;;;5047484;28;20037;-65
2021/03/07 07:25:55;;;;;;;5.40;2.70;;;;;;;;;;5046667;28;20469;-65
2021/03/07 07:28:22;;;;;;;2.80;2.13;;;;;;;;;;5047706;28;20468;-65
2021/03/07 07:31:08;;;;;;;2.47;2.22;;;;;;;;;;5046898;28;20060;-65
2021/03/07 07:33:54;;;;;;;3.80;1.80;;;;;;;;;;5046918;28;20475;-65
2021/03/07 07:36:23;;;;;;;3.72;1.70;;;;;;;;;;5046869;28;20108;-65
2021/03/07 07:38:51;;;;;;;3.38;2.17;;;;;;;;;;5046813;28;20029;-65
2021/03/07 07:41:27;;;;;;;4.68;2.38;;;;;;;;;;5047119;28;20017;-65
2021/03/07 07:43:53;;;;;;;2.20;1.95;;;;;;;;;;5045996;28;20037;-65
2021/03/07 07:46:19;;;;;;;5.28;1.83;;;;;;;;;;5046747;28;20033;-65
2021/03/07 07:48:46;;;;;;;4.05;2.50;;;;;;;;;;5045855;28;20084;-65
2021/03/07 07:51:30;;;;;;;2.08;1.88;;;;;;;;;;5047019;28;20025;-65
2021/03/07 07:53:57;;;;;;;3.88;3.08;;;;;;;;;;5046754;28;20021;-65
2021/03/07 07:56:53;;;;;;;4.45;2.83;;;;;;;;;;5047685;28;20056;-65
2021/03/07 07:59:39;;;;;;;3.85;2.50;;;;;;;;;;5026070;28;20045;-65
2021/03/07 08:02:05;;;;;;;4.65;3.08;;;;;;;;;;5046842;28;20922;-65
2021/03/07 08:04:31;;;;;;;2.53;1.90;;;;;;;;;;5046708;28;20158;-65
2021/03/07 08:06:58;;;;;;;2.13;1.92;;;;;;;;;;5050091;28;20045;-65
2021/03/07 08:09:36;;;;;;;4.10;2.63;;;;;;;;;;5050861;28;20257;-65
2021/03/07 08:12:21;;;;;;;6.15;2.65;;;;;;;;;;5050110;28;20194;-65
2021/03/07 08:14:47;;;;;;;2.95;1.98;;;;;;;;;;5049961;28;20029;-65
2021/03/07 08:17:32;;;;;;;2.50;1.95;;;;;;;;;;5050887;28;20224;-65
2021/03/07 08:19:58;;;;;;;4.72;2.75;;;;;;;;;;5049918;28;20041;-65
2021/03/07 08:22:24;;;;;;;2.83;2.35;;;;;;;;;;5050230;28;20025;-65
2021/03/07 08:24:55;;;;;;;2.95;1.52;;;;;;;;;;5049922;28;20038;-65
2021/03/07 08:27:37;;;;;;;4.68;3.20;;;;;;;;;;5050303;28;20033;-65
2021/03/07 08:30:16;;;;;;;2.25;2.05;;;;;;;;;;5049761;28;20025;-65
2021/03/07 08:32:43;;;;;;;6.90;2.47;;;;;;;;;;5031980;28;20469;-65
2021/03/07 08:35:13;;;;;;;4.03;2.47;;;;;;;;;;5049221;28;20021;-65
2021/03/07 08:37:39;;;;;;;2.40;1.75;;;;;;;;;;5049876;28;20041;-65
2021/03/07 08:40:24;;;;;;;2.65;1.80;;;;;;;;;;5049706;28;20061;-65
2021/03/07 08:42:50;;;;;;;4.32;2.83;;;;;;;;;;5049576;28;20123;-65
2021/03/07 08:45:16;;;;;;;3.80;2.83;;;;;;;;;;5050107;28;20028;-65
2021/03/07 08:48:01;;;;;;;3.55;2.53;;;;;;;;;;5049594;28;20041;-65
2021/03/07 08:50:28;;;;;;;6.63;3.08;;;;;;;;;;5049177;28;20084;-65
2021/03/07 08:52:54;;;;;;;3.63;3.17;;;;;;;;;;5049410;28;20037;-65
2021/03/07 08:55:20;;;;;;;3.67;2.92;;;;;;;;;;5050241;28;20033;-65
2021/03/07 08:57:47;;;;;;;4.47;3.63;;;;;;;;;;5049639;28;20402;-65
2021/03/07 09:00:14;;;;;;;4.72;2.97;;;;;;;;;;5046843;28;20079;-65
2021/03/07 09:02:41;;;;;;;4.60;3.47;;;;;;;;;;5048661;28;20491;-65
2021/03/07 09:05:08;;;;;;;7.20;3.17;;;;;;;;;;5047798;28;20068;-65
2021/03/07 09:07:35;;;;;;;5.50;3.20;;;;;;;;;;5048936;28;20052;-65
2021/03/07 09:10:01;;;;;;;4.78;3.50;;;;;;;;;;5048443;28;20480;-65
2021/03/07 09:12:27;;;;;;;4.47;4.05;;;;;;;;;;5048233;28;20025;-65
2021/03/07 09:14:53;;;;;;;10.07;3.67;;;;;;;;;;5048451;28;20052;-65
2021/03/07 09:17:20;;;;;;;3.05;2.75;;;;;;;;;;5048934;28;20083;-65
2021/03/07 09:19:46;;;;;;;7.50;3.42;;;;;;;;;;5047922;28;20025;-65
2021/03/07 09:22:23;;;;;;;6.65;3.40;;;;;;;;;;5048241;28;20025;-65
2021/03/07 09:24:49;;;;;;;4.72;4.13;;;;;;;;;;5048432;28;20057;-65
2021/03/07 09:27:15;;;;;;;8.38;4.10;;;;;;;;;;5048686;28;20025;-65
2021/03/07 09:30:00;;;;;;;6.18;3.17;;;;;;;;;;5047500;28;20035;-65
2021/03/07 09:32:37;;;;;;;3.42;3.08;;;;;;;;;;5048285;28;20040;-65
2021/03/07 09:35:36;;;;;;;4.18;3.00;;;;;;;;;;5047213;28;20037;-65
2021/03/07 09:38:06;;;;;;;6.95;3.35;;;;;;;;;;4993764;28;20515;-65
2021/03/07 09:40:34;;;;;;;6.13;3.00;;;;;;;;;;5048089;28;20048;-65
2021/03/07 09:43:01;;;;;;;5.57;3.13;;;;;;;;;;5048235;28;20575;-65
2021/03/07 09:45:28;;;;;;;4.95;3.97;;;;;;;;;;5049439;28;20108;-65
2021/03/07 09:47:55;;;;;;;18.33;4.80;;;;;;;;;;5047894;28;20025;-65
2021/03/07 09:50:22;;;;;;;8.85;2.55;;;;;;;;;;5048377;28;20017;-65
2021/03/07 09:52:48;;;;;;;6.45;2.85;;;;;;;;;;5047976;28;20572;-65
2021/03/07 09:55:23;;;;;;;6.28;2.78;;;;;;;;;;5049236;28;20376;-65
2021/03/07 09:58:08;;;;;;;4.47;3.20;;;;;;;;;;5048203;28;20036;-65
2021/03/07 10:00:35;;;;;;;6.55;3.45;;;;;;;;;;5048208;28;20021;-65
2021/03/07 10:03:01;;;;;;;2.67;2.47;;;;;;;;;;5048360;28;20484;-65
2021/03/07 10:05:28;;;;;;;3.47;2.88;;;;;;;;;;5048074;28;20084;-65
2021/03/07 10:07:54;;;;;;;2.72;2.38;;;;;;;;;;5047965;28;20051;-65
2021/03/07 10:10:24;;;;;;;3.72;2.47;;;;;;;;;;5048263;28;20033;-65
2021/03/07 10:12:51;;;;;;;5.65;2.67;;;;;;;;;;5047952;28;20045;-65
2021/03/07 10:15:29;;;;;;;2.50;2.30;;;;;;;;;;5048907;28;20017;-65
2021/03/07 10:17:56;;;;;;;6.85;2.78;;;;;;;;;;5047982;28;20033;-65
2021/03/07 10:20:22;;;;;;;5.35;2.75;;;;;;;;;;5047734;28;20676;-65
2021/03/07 10:22:49;;;;;;;3.15;2.85;;;;;;;;;;5047215;28;20029;-65
2021/03/07 10:25:25;;;;;;;5.40;2.50;;;;;;;;;;5048704;28;20025;-65
2021/03/07 10:27:55;;;;;;;4.13;2.83;;;;;;;;;;5047516;28;20083;-65
2021/03/07 10:30:49;;;;;;;3.47;2.38;;;;;;;;;;5047104;28;20027;-65
2021/03/07 10:33:19;;;;;;;5.25;3.50;;;;;;;;;;5045328;28;20053;-65
2021/03/07 10:36:04;;;;;;;3.13;2.67;;;;;;;;;;5046647;28;20514;-65
2021/03/07 10:38:30;;;;;;;6.45;2.90;;;;;;;;;;5047835;28;20115;-65
2021/03/07 10:40:57;;;;;;;4.55;2.97;;;;;;;;;;5046911;28;20083;-65
2021/03/07 10:43:23;;;;;;;6.55;4.00;;;;;;;;;;5047642;28;20033;-65
2021/03/07 10:45:50;;;;;;;6.30;3.13;;;;;;;;;;5047482;28;20668;-65
2021/03/07 10:48:16;;;;;;;5.97;3.30;;;;;;;;;;5047621;28;20523;-65
2021/03/07 10:50:43;;;;;;;2.70;2.20;;;;;;;;;;5046047;28;20048;-65
2021/03/07 10:53:09;;;;;;;3.97;3.55;;;;;;;;;;5047027;28;20128;-65
2021/03/07 10:55:35;;;;;;;4.80;2.70;;;;;;;;;;5048362;28;20087;-65
2021/03/07 10:58:02;;;;;;;2.30;2.08;;;;;;;;;;5047988;28;20553;-65
2021/03/07 11:00:28;;;;;;;5.93;3.78;;;;;;;;;;5028982;28;20075;-65
2021/03/07 11:02:54;;;;;;;2.55;2.25;;;;;;;;;;5047300;28;20031;-65
2021/03/07 11:05:21;;;;;;;3.60;1.98;;;;;;;;;;5046828;28;20372;-65
2021/03/07 11:07:47;;;;;;;4.57;3.20;;;;;;;;;;5047257;28;20081;-65
2021/03/07 11:10:15;;;;;;;5.22;2.53;;;;;;;;;;5047507;28;20029;-65
2021/03/07 11:12:42;;;;;;;2.63;2.08;;;;;;;;;;5046488;28;20080;-65
2021/03/07 11:15:09;;;;;;;6.47;2.63;;;;;;;;;;5048097;28;20387;-65
2021/03/07 11:17:35;;;;;;;2.97;2.45;;;;;;;;;;5047869;28;20029;-65
2021/03/07 11:20:02;;;;;;;3.78;2.03;;;;;;;;;;5046612;28;20061;-65
2021/03/07 11:22:28;;;;;;;4.93;3.67;;;;;;;;;;5046842;28;20043;-65
2021/03/07 11:24:55;;;;;;;3.40;3.03;;;;;;;;;;5046713;28;20079;-65
2021/03/07 11:27:21;;;;;;;5.43;2.85;;;;;;;;;;5047838;28;20032;-65
2021/03/07 11:29:47;;;;;;;3.20;2.20;;;;;;;;;;5046742;28;20029;-65
2021/03/07 11:32:13;;;;;;;6.53;2.92;;;;;;;;;;5047353;28;20040;-65
2021/03/07 11:34:39;;;;;;;7.40;3.22;;;;;;;;;;5045798;28;20549;-65
2021/03/07 11:37:05;;;;;;;4.40;2.60;;;;;;;;;;5047670;28;20025;-65
2021/03/07 11:39:32;;;;;;;2.67;2.47;;;;;;;;;;5047259;28;20167;-65
2021/03/07 11:41:59;;;;;;;9.25;2.47;;;;;;;;;;5050372;28;21139;-65
2021/03/07 11:44:25;;;;;;;3.03;2.00;;;;;;;;;;5051518;28;20406;-65
2021/03/07 11:46:53;;;;;;;3.22;2.15;;;;;;;;;;5051175;28;20112;-65
2021/03/07 11:49:20;;;;;;;3.50;2.00;;;;;;;;;;5050998;28;20064;-65
2021/03/07 11:51:46;;;;;;;2.90;2.22;;;;;;;;;;5049327;28;20029;-65
2021/03/07 11:54:12;;;;;;;3.08;1.95;;;;;;;;;;5050778;28;20025;-65
2021/03/07 11:56:38;;;;;;;2.85;2.55;;;;;;;;;;5050829;28;20175;-65
2021/03/07 11:59:04;;;;;;;3.30;1.92;;;;;;;;;;5051029;28;20499;-65
2021/03/07 12:01:31;;;;;;;3.08;2.28;;;;;;;;;;5050354;28;20392;-65
2021/03/07 12:03:57;;;;;;;6.90;2.30;;;;;;;;;;5049772;28;20559;-65
2021/03/07 12:06:23;;;;;;;4.43;2.67;;;;;;;;;;5050362;28;20045;-65
2021/03/07 12:08:50;;;;;;;3.63;2.22;;;;;;;;;;5050644;28;20068;-65
2021/03/07 12:11:16;;;;;;;3.78;2.78;;;;;;;;;;5050031;28;20070;-65
2021/03/07 12:13:42;;;;;;;3.67;3.00;;;;;;;;;;5049933;28;20480;-65
2021/03/07 12:16:08;;;;;;;3.60;1.95;;;;;;;;;;5051213;28;20379;-65
2021/03/07 12:18:38;;;;;;;3.88;2.40;;;;;;;;;;5050990;28;20103;-65
2021/03/07 12:21:05;;;;;;;2.13;1.80;;;;;;;;;;5050086;28;20131;-65
2021/03/07 12:23:31;;;;;;;2.50;2.15;;;;;;;;;;5050314;28;20029;-65
2021/03/07 12:25:57;;;;;;;5.70;2.63;;;;;;;;;;5049788;28;20052;-65
2021/03/07 12:28:23;;;;;;;2.13;1.88;;;;;;;;;;5050965;28;20502;-65
2021/03/07 12:30:49;;;;;;;3.15;2.55;;;;;;;;;;5049186;28;20029;-65
2021/03/07 12:33:15;;;;;;;3.25;2.47;;;;;;;;;;5050074;28;20041;-65
2021/03/07 12:35:41;;;;;;;3.67;2.05;;;;;;;;;;5049135;28;20107;-65
2021/03/07 12:38:07;;;;;;;2.05;1.85;;;;;;;;;;5050244;28;20048;-65
2021/03/07 12:40:33;;;;;;;5.40;2.90;;;;;;;;;;5049794;28;20506;-65
2021/03/07 12:42:59;;;;;;;2.78;2.45;;;;;;;;;;5049570;28;20380;-65
2021/03/07 12:45:26;;;;;;;3.60;2.72;;;;;;;;;;5050300;28;20033;-65
2021/03/07 12:47:52;;;;;;;10.98;3.25;;;;;;;;;;5050203;28;20029;-65
2021/03/07 12:50:18;;;;;;;2.22;2.03;;;;;;;;;;5049035;28;20033;-65
2021/03/07 12:52:44;;;;;;;5.45;3.05;;;;;;;;;;5048715;28;20119;-65
2021/03/07 12:55:10;;;;;;;7.90;2.63;;;;;;;;;;5049952;28;20502;-65
2021/03/07 12:57:36;;;;;;;4.90;2.50;;;;;;;;;;5050020;28;20483;-65
2021/03/07 13:00:03;;;;;;;3.63;2.13;;;;;;;;;;5049279;28;20064;-65
2021/03/07 13:02:29;;;;;;;4.05;2.05;;;;;;;;;;5049633;28;20033;-65
2021/03/07 13:04:55;;;;;;;2.13;1.90;;;;;;;;;;5048292;28;20120;-65
2021/03/07 13:07:21;;;;;;;2.97;2.78;;;;;;;;;;5049791;28;20103;-65
2021/03/07 13:09:47;;;;;;;3.00;2.10;;;;;;;;;;5048936;28;20025;-65
2021/03/07 13:12:14;;;;;;;2.30;2.05;;;;;;;;;;5048953;28;20029;-65
2021/03/07 13:14:40;;;;;;;4.20;2.58;;;;;;;;;;5049183;28;20025;-65
2021/03/07 13:17:06;;;;;;;4.13;2.67;;;;;;;;;;5050099;28;20047;-65
2021/03/07 13:19:32;;;;;;;3.90;2.10;;;;;;;;;;5049536;28;20119;-65
2021/03/07 13:21:58;;;;;;;3.28;2.17;;;;;;;;;;5048535;28;20597;-65
2021/03/07 13:24:24;;;;;;;3.22;2.30;;;;;;;;;;5049279;28;20551;-65
2021/03/07 13:26:51;;;;;;;4.80;2.55;;;;;;;;;;5049120;28;20021;-65
2021/03/07 13:29:17;;;;;;;3.67;3.13;;;;;;;;;;5049457;28;20128;-65
2021/03/07 13:31:43;;;;;;;3.42;2.35;;;;;;;;;;5048660;28;20025;-65
2021/03/07 13:34:10;;;;;;;3.28;2.13;;;;;;;;;;5048653;28;20026;-65
2021/03/07 13:36:36;;;;;;;3.45;2.65;;;;;;;;;;5048215;28;20091;-65
2021/03/07 13:39:03;;;;;;;3.65;2.22;;;;;;;;;;5049019;28;20524;-65
2021/03/07 13:41:29;;;;;;;2.88;2.45;;;;;;;;;;5048764;28;20404;-65
2021/03/07 13:43:55;;;;;;;5.03;2.95;;;;;;;;;;5048272;28;20017;-65
2021/03/07 13:46:21;;;;;;;4.55;2.65;;;;;;;;;;5049360;28;20029;-65
2021/03/07 13:48:47;;;;;;;2.50;2.30;;;;;;;;;;5048466;28;20037;-65
2021/03/07 13:51:13;;;;;;;3.58;2.30;;;;;;;;;;5048362;28;20400;-65
2021/03/07 13:53:39;;;;;;;2.95;1.92;;;;;;;;;;5048658;28;20318;-65
2021/03/07 13:56:06;;;;;;;4.25;2.50;;;;;;;;;;5048748;28;20053;-65
2021/03/07 13:58:32;;;;;;;3.72;2.42;;;;;;;;;;5048657;28;20029;-65
2021/03/07 14:00:59;;;;;;;3.47;2.67;;;;;;;;;;5047016;28;20039;-65
2021/03/07 14:03:25;;;;;;;3.17;2.45;;;;;;;;;;5047736;28;20439;-65
2021/03/07 14:05:51;;;;;;;5.03;2.40;;;;;;;;;;5047086;28;20273;-65
2021/03/07 14:08:17;;;;;;;5.30;2.35;;;;;;;;;;5048477;28;20049;-65
2021/03/07 14:10:43;;;;;;;2.65;2.45;;;;;;;;;;5047885;28;20029;-65
2021/03/07 14:13:09;;;;;;;4.82;2.60;;;;;;;;;;5048473;28;20029;-65
2021/03/07 14:15:36;;;;;;;4.72;2.42;;;;;;;;;;5049086;28;20029;-65
2021/03/07 14:18:02;;;;;;;2.45;2.25;;;;;;;;;;5048063;28;20083;-65
2021/03/07 14:20:28;;;;;;;5.57;3.20;;;;;;;;;;5048228;28;20487;-65
2021/03/07 14:22:55;;;;;;;4.22;2.70;;;;;;;;;;5047200;28;20033;-65
2021/03/07 14:25:21;;;;;;;3.15;2.67;;;;;;;;;;5048465;28;20025;-65
2021/03/07 14:27:47;;;;;;;5.70;2.72;;;;;;;;;;5047418;28;20036;-65
2021/03/07 14:30:15;;;;;;;3.70;2.28;;;;;;;;;;5048034;28;20031;-65
2021/03/07 14:32:41;;;;;;;4.78;3.00;;;;;;;;;;5047957;28;20095;-65
2021/03/07 14:35:07;;;;;;;4.78;3.30;;;;;;;;;;5047102;28;20029;-65
2021/03/07 14:37:33;;;;;;;3.50;2.80;;;;;;;;;;5048389;28;20044;-65
2021/03/07 14:40:00;;;;;;;3.00;2.03;;;;;;;;;;5046754;28;20083;-65
2021/03/07 14:42:26;;;;;;;4.90;2.88;;;;;;;;;;5048438;28;20036;-65
2021/03/07 14:44:52;;;;;;;4.80;3.13;;;;;;;;;;5048039;28;20439;-66
2021/03/07 14:47:18;;;;;;;4.45;2.75;;;;;;;;;;5048319;28;20465;-65
2021/03/07 14:49:44;;;;;;;3.13;2.70;;;;;;;;;;5047282;28;20083;-65